Burrillville, Rhode Island
Current Conditions -  °F | °C
As of 2:15 AM on Friday 28 Nov 2014 (Local Time) from KSFZ Reporting Station
Overcast Overcast  
Wind Chill: 20°   Ceiling: 4400
Heat Index: 28°   Visibility: 10mi
Dew Point: 21°   Wind: 9mph
Humidity: 74%   Direction: 340°NNW
Pressure: 29.97"   Gusts: NA
Location:  41.9762°N, 71.6332°W
Report Text: KSFZ 280715Z 34008KT 10SM OVC044 M02/M06 A2997 RMK AO1
Loading
Personal Weather Stations






























Interactive Weather Map New forecast layout! Learn more

10-Day Weather Forecast

Advertisements
Track Severe Weather on mobile